Time;durP1;ratioP1;P1;durP2;ratioP2;P2;SDS_P1;SDS_P2;PMS_P1;PMS_P2;Temp;Humidity;BMP_temperature;BMP_pressure;BME280_temperature;BME280_humidity;BME280_pressure;Samples;Min_cycle;Max_cycle;Signal;HPM_P1;HPM_P2
2022/08/30 00:01:10;;;;;;;3.88;1.65;;;16.50;99.90;;;;;;5072715;28;20132;-78
2022/08/30 00:03:41;;;;;;;4.47;2.30;;;16.40;99.90;;;;;;5072581;28;20075;-77
2022/08/30 00:06:08;;;;;;;3.55;2.10;;;16.40;99.90;;;;;;5072756;28;20171;-77
2022/08/30 00:08:35;;;;;;;5.40;1.90;;;16.40;99.90;;;;;;5056340;28;20097;-77
2022/08/30 00:11:04;;;;;;;2.88;1.88;;;16.40;99.90;;;;;;5041250;28;20056;-77
2022/08/30 00:13:29;;;;;;;3.08;1.50;;;16.40;99.90;;;;;;5035851;28;20086;-77
2022/08/30 00:15:55;;;;;;;3.63;1.70;;;16.40;99.90;;;;;;5052336;28;20481;-77
2022/08/30 00:18:21;;;;;;;3.90;1.63;;;16.40;99.90;;;;;;5052856;28;20083;-78
2022/08/30 00:20:48;;;;;;;2.22;1.80;;;16.30;99.90;;;;;;5052583;28;20049;-77
2022/08/30 00:23:15;;;;;;;2.50;1.80;;;16.10;99.90;;;;;;5052530;28;20049;-77
2022/08/30 00:25:42;;;;;;;5.80;2.25;;;16.00;99.90;;;;;;5052364;28;20048;-77
2022/08/30 00:28:08;;;;;;;2.10;1.63;;;15.70;99.90;;;;;;5052495;28;20048;-77
2022/08/30 00:30:35;;;;;;;3.15;1.90;;;15.60;99.90;;;;;;5051787;28;20041;-77
2022/08/30 00:33:00;;;;;;;;;;;15.40;99.90;;;;;;5036043;28;20052;-77
2022/08/30 00:35:26;;;;;;;3.92;2.17;;;15.30;99.90;;;;;;5052170;28;20004;-77
2022/08/30 00:37:52;;;;;;;2.25;1.80;;;15.20;99.90;;;;;;5035922;28;20381;-77
2022/08/30 00:40:19;;;;;;;3.03;2.20;;;15.10;99.90;;;;;;5052045;28;20048;-78
2022/08/30 00:42:46;;;;;;;2.53;2.15;;;15.10;99.90;;;;;;5035824;28;20048;-77
2022/08/30 00:45:25;;;;;;;4.55;2.33;;;15.00;99.90;;;;;;5051964;28;20076;-77
2022/08/30 00:47:51;;;;;;;3.95;2.50;;;15.00;99.90;;;;;;5035530;28;20053;-77
2022/08/30 00:50:20;;;;;;;3.17;2.58;;;15.00;99.90;;;;;;5035294;28;20041;-78
2022/08/30 00:52:49;;;;;;;3.67;2.83;;;14.90;99.90;;;;;;5068905;28;20107;-77
2022/08/30 00:55:16;;;;;;;4.53;2.60;;;15.00;99.90;;;;;;5051638;28;20056;-77
2022/08/30 00:57:44;;;;;;;2.95;2.50;;;15.00;99.90;;;;;;5035089;28;20037;-77
2022/08/30 01:00:12;;;;;;;8.70;2.42;;;15.00;99.90;;;;;;5051634;28;20040;-77
2022/08/30 01:02:38;;;;;;;3.35;2.30;;;15.00;99.90;;;;;;5068096;28;20087;-77
2022/08/30 01:05:07;;;;;;;3.70;2.30;;;15.00;99.90;;;;;;5051553;28;20462;-77
2022/08/30 01:07:33;;;;;;;2.38;2.13;;;15.00;99.90;;;;;;5051751;28;20053;-77
2022/08/30 01:10:00;;;;;;;5.15;2.70;;;15.10;99.90;;;;;;5051777;28;20037;-77
2022/08/30 01:12:28;;;;;;;5.68;2.92;;;15.10;99.90;;;;;;5051762;28;20051;-77
2022/08/30 01:14:55;;;;;;;4.10;2.40;;;15.10;99.90;;;;;;5050760;28;20115;-78
2022/08/30 01:17:21;;;;;;;6.15;2.97;;;15.20;99.90;;;;;;5067760;28;20048;-77
2022/08/30 01:19:52;;;;;;;8.80;3.05;;;15.20;99.90;;;;;;5034654;28;20451;-77
2022/08/30 01:22:33;;;;;;;5.32;2.80;;;15.30;99.90;;;;;;5034526;28;20032;-77
2022/08/30 01:25:00;;;;;;;7.22;3.25;;;15.30;99.90;;;;;;5051542;28;20109;-77
2022/08/30 01:27:27;;;;;;;4.22;2.90;;;15.40;99.90;;;;;;5034817;28;20401;-77
2022/08/30 01:29:54;;;;;;;5.55;3.40;;;15.40;99.90;;;;;;5051332;28;20051;-77
2022/08/30 01:32:21;;;;;;;;;;;15.40;99.90;;;;;;5018729;28;20388;-77
2022/08/30 01:34:47;;;;;;;8.27;3.92;;;15.40;99.90;;;;;;5051063;28;19943;-78
2022/08/30 01:37:26;;;;;;;5.60;3.42;;;15.40;99.90;;;;;;5067849;28;20484;-77
2022/08/30 01:39:52;;;;;;;5.70;3.72;;;15.50;99.90;;;;;;5051284;28;20043;-77
2022/08/30 01:42:18;;;;;;;7.15;3.70;;;15.50;99.90;;;;;;5041442;28;20036;-77
2022/08/30 01:44:45;;;;;;;5.85;3.45;;;15.60;99.90;;;;;;5054227;28;20049;-77
2022/08/30 01:47:11;;;;;;;6.15;3.53;;;15.60;99.90;;;;;;5071135;28;20071;-77
2022/08/30 01:49:38;;;;;;;;;;;15.60;99.90;;;;;;5071585;28;20487;-77
2022/08/30 01:52:05;;;;;;;4.55;2.75;;;15.60;99.90;;;;;;5070761;28;19978;-77
2022/08/30 01:54:33;;;;;;;8.13;4.05;;;15.60;99.90;;;;;;5069772;28;20110;-77
2022/08/30 01:56:58;;;;;;;6.25;3.95;;;15.60;99.90;;;;;;5054002;28;20049;-77
2022/08/30 01:59:24;;;;;;;6.15;3.55;;;15.60;99.90;;;;;;5053012;28;20041;-77
2022/08/30 02:01:50;;;;;;;5.05;3.65;;;15.60;99.90;;;;;;5050254;28;20075;-77
2022/08/30 02:04:16;;;;;;;6.15;3.55;;;15.70;99.90;;;;;;5017185;28;20087;-78
2022/08/30 02:06:43;;;;;;;;;;;15.60;99.90;;;;;;5050557;28;20068;-77
2022/08/30 02:09:10;;;;;;;8.48;4.18;;;15.60;99.90;;;;;;5067213;28;20005;-78
2022/08/30 02:11:36;;;;;;;5.50;3.80;;;15.70;99.90;;;;;;5049988;28;20171;-77
2022/08/30 02:14:02;;;;;;;8.07;4.60;;;15.60;99.90;;;;;;5050247;28;20132;-77
2022/08/30 02:16:28;;;;;;;6.45;3.72;;;15.60;99.90;;;;;;5050712;28;20477;-77
2022/08/30 02:18:55;;;;;;;6.63;4.20;;;15.60;99.90;;;;;;5066848;28;20043;-77
2022/08/30 02:21:22;;;;;;;4.95;3.80;;;15.60;99.90;;;;;;5034105;28;20474;-78
2022/08/30 02:23:48;;;;;;;5.68;3.70;;;15.60;99.90;;;;;;5067275;28;20107;-77
2022/08/30 02:26:16;;;;;;;5.15;3.40;;;15.60;99.90;;;;;;5068802;28;20040;-83
2022/08/30 02:28:42;;;;;;;8.10;3.30;;;15.60;99.90;;;;;;5054473;28;20037;-84
2022/08/30 02:31:08;;;;;;;;;;;15.60;99.90;;;;;;5038586;28;20128;-84
2022/08/30 02:33:33;;;;;;;5.15;3.40;;;15.60;99.90;;;;;;5054247;28;20011;-84
2022/08/30 02:35:59;;;;;;;5.80;3.75;;;15.60;99.90;;;;;;5054674;28;20029;-84
2022/08/30 02:38:25;;;;;;;4.78;3.45;;;15.50;99.90;;;;;;5054114;28;20154;-84
2022/08/30 02:40:51;;;;;;;7.90;3.65;;;15.50;99.90;;;;;;5054202;28;20045;-84
2022/08/30 02:43:18;;;;;;;6.32;3.58;;;15.50;99.90;;;;;;5053984;28;20550;-84
2022/08/30 02:45:43;;;;;;;;;;;15.50;99.90;;;;;;5038104;28;20033;-84
2022/08/30 02:48:09;;;;;;;5.47;3.72;;;15.50;99.90;;;;;;5053981;28;19969;-84
2022/08/30 02:50:40;;;;;;;6.25;3.50;;;15.40;99.90;;;;;;5054408;28;20480;-84
2022/08/30 02:53:05;;;;;;;5.20;3.50;;;15.40;99.90;;;;;;5054069;28;20488;-83
2022/08/30 02:55:31;;;;;;;5.03;3.60;;;15.40;99.90;;;;;;5070754;28;20053;-84
2022/08/30 02:57:57;;;;;;;6.90;3.67;;;15.40;99.90;;;;;;5054016;28;20400;-84
2022/08/30 03:00:23;;;;;;;5.60;3.65;;;15.30;99.90;;;;;;5037435;28;20080;-84
2022/08/30 03:02:48;;;;;;;6.82;4.00;;;15.30;99.90;;;;;;5053909;28;20041;-84
2022/08/30 03:05:15;;;;;;;5.65;4.05;;;15.30;99.90;;;;;;5037442;28;20493;-84
2022/08/30 03:07:42;;;;;;;7.15;4.30;;;15.30;99.90;;;;;;5037242;28;20051;-84
2022/08/30 03:10:09;;;;;;;6.43;4.35;;;15.20;99.90;;;;;;5053443;28;20048;-84
2022/08/30 03:12:34;;;;;;;6.63;4.50;;;15.20;99.90;;;;;;5053930;28;20037;-84
2022/08/30 03:15:00;;;;;;;7.82;4.47;;;15.20;99.90;;;;;;5053780;28;20036;-84
2022/08/30 03:17:26;;;;;;;7.95;5.38;;;15.20;99.90;;;;;;5053590;28;20583;-84
2022/08/30 03:19:52;;;;;;;8.77;5.10;;;15.10;99.90;;;;;;5053519;28;20140;-84
2022/08/30 03:22:18;;;;;;;;;;;15.10;99.90;;;;;;5070737;28;20373;-84
2022/08/30 03:24:44;;;;;;;6.25;5.30;;;15.10;99.90;;;;;;5053375;28;20053;-84
2022/08/30 03:27:11;;;;;;;7.40;5.10;;;15.10;99.90;;;;;;5053407;28;20120;-84
2022/08/30 03:29:38;;;;;;;;;;;15.00;99.90;;;;;;5054130;28;20093;-84
2022/08/30 03:32:04;;;;;;;8.15;4.43;;;15.00;99.90;;;;;;5036873;28;20003;-84
2022/08/30 03:34:29;;;;;;;8.70;4.55;;;15.00;99.90;;;;;;5053172;28;20048;-84
2022/08/30 03:36:55;;;;;;;7.13;4.13;;;15.00;99.90;;;;;;5069629;28;20041;-84
2022/08/30 03:39:22;;;;;;;7.43;4.40;;;14.90;99.90;;;;;;5052730;28;20072;-84
2022/08/30 03:41:48;;;;;;;7.65;4.55;;;14.90;99.90;;;;;;5036418;28;20037;-84
2022/08/30 03:44:14;;;;;;;7.57;4.28;;;14.90;99.90;;;;;;5052989;28;20068;-84
2022/08/30 03:46:40;;;;;;;9.48;4.22;;;14.90;99.90;;;;;;5036630;28;20079;-84
2022/08/30 03:49:06;;;;;;;6.75;4.22;;;14.90;99.90;;;;;;5053207;28;20045;-84
2022/08/30 03:51:32;;;;;;;6.95;4.07;;;14.90;99.90;;;;;;5053099;28;20367;-84
2022/08/30 03:53:59;;;;;;;10.40;4.45;;;14.80;99.90;;;;;;5052519;28;20045;-84
2022/08/30 03:56:25;;;;;;;6.53;4.07;;;14.80;99.90;;;;;;5053045;28;20041;-84
2022/08/30 03:58:51;;;;;;;6.90;4.30;;;14.80;99.90;;;;;;5052838;28;20037;-84
2022/08/30 04:01:17;;;;;;;8.98;4.47;;;14.80;99.90;;;;;;5036284;28;20041;-83
2022/08/30 04:03:42;;;;;;;6.93;4.70;;;14.70;99.90;;;;;;5036242;28;20041;-84
2022/08/30 04:06:08;;;;;;;7.75;4.80;;;14.70;99.90;;;;;;5051427;28;20101;-84
2022/08/30 04:08:34;;;;;;;7.35;4.93;;;14.70;99.90;;;;;;5089695;28;20055;-84
2022/08/30 04:11:01;;;;;;;8.95;5.43;;;14.70;99.90;;;;;;5072886;28;20396;-84
2022/08/30 04:13:27;;;;;;;8.57;5.30;;;14.60;99.90;;;;;;5055834;28;20092;-84
2022/08/30 04:15:53;;;;;;;;;;;14.60;99.90;;;;;;5073363;28;20489;-84
2022/08/30 04:18:19;;;;;;;8.13;5.18;;;14.50;99.90;;;;;;5072330;28;19922;-83
2022/08/30 04:20:46;;;;;;;7.50;5.05;;;14.50;99.90;;;;;;5055731;28;20059;-84
2022/08/30 04:23:12;;;;;;;8.75;5.07;;;14.50;99.90;;;;;;5059549;28;20040;-83
2022/08/30 04:25:39;;;;;;;;;;;14.50;99.90;;;;;;5053015;28;20119;-84
2022/08/30 04:28:06;;;;;;;8.63;5.15;;;14.50;99.90;;;;;;5052477;28;20359;-84
2022/08/30 04:30:32;;;;;;;6.53;5.03;;;14.50;99.90;;;;;;5052296;28;20448;-84
2022/08/30 04:32:57;;;;;;;10.48;5.53;;;14.50;99.90;;;;;;5052233;28;20129;-84
2022/08/30 04:35:24;;;;;;;11.65;5.53;;;14.50;99.90;;;;;;5052298;28;20548;-84
2022/08/30 04:37:49;;;;;;;;;;;14.40;99.90;;;;;;5052467;28;20116;-84
2022/08/30 04:40:16;;;;;;;6.20;5.00;;;14.50;99.90;;;;;;5051923;28;20007;-83
2022/08/30 04:42:44;;;;;;;7.22;5.18;;;14.40;99.90;;;;;;5052252;28;20068;-84
2022/08/30 04:45:13;;;;;;;8.15;5.03;;;14.40;99.90;;;;;;5052086;28;20166;-84
2022/08/30 04:47:40;;;;;;;9.35;4.97;;;14.40;99.90;;;;;;5052322;28;20548;-84
2022/08/30 04:50:08;;;;;;;6.80;5.03;;;14.40;99.90;;;;;;5035306;28;20128;-84
2022/08/30 04:52:34;;;;;;;5.63;4.47;;;14.40;99.90;;;;;;5051974;28;20524;-84
2022/08/30 04:54:59;;;;;;;7.18;4.22;;;14.40;99.90;;;;;;5051487;28;20056;-83
2022/08/30 04:57:26;;;;;;;6.47;3.90;;;14.40;99.90;;;;;;5051733;28;20539;-83
2022/08/30 04:59:52;;;;;;;6.97;4.30;;;14.40;99.90;;;;;;5068427;28;20049;-83
2022/08/30 05:02:18;;;;;;;7.28;4.20;;;14.40;99.90;;;;;;5051693;28;20504;-84
2022/08/30 05:07:28;;;;;;;5.97;3.95;;;14.40;99.90;;;;;;5051405;28;20091;-83
2022/08/30 05:09:54;;;;;;;;;;;14.40;99.90;;;;;;5035361;28;20049;-84
2022/08/30 05:12:19;;;;;;;5.85;3.90;;;14.40;99.90;;;;;;5052188;28;20393;-84
2022/08/30 05:14:45;;;;;;;6.10;4.10;;;14.40;99.90;;;;;;5051542;28;20183;-84
2022/08/30 05:17:11;;;;;;;7.85;4.05;;;14.40;99.90;;;;;;5051565;28;20037;-84
2022/08/30 05:19:37;;;;;;;7.68;4.18;;;14.40;99.90;;;;;;5018149;28;20471;-84
2022/08/30 05:22:03;;;;;;;9.70;4.05;;;14.40;99.90;;;;;;5051268;28;20041;-84
2022/08/30 05:24:30;;;;;;;7.05;4.30;;;14.30;99.90;;;;;;5051005;28;20059;-84
2022/08/30 05:26:55;;;;;;;6.38;4.03;;;14.40;99.90;;;;;;5034902;28;20076;-84
2022/08/30 05:29:21;;;;;;;7.72;4.70;;;14.40;99.90;;;;;;5038916;28;20084;-83
2022/08/30 05:31:47;;;;;;;8.32;4.60;;;14.40;99.90;;;;;;5054757;28;20052;-84
2022/08/30 05:34:13;;;;;;;5.72;4.72;;;14.50;99.90;;;;;;5071127;28;20450;-83
2022/08/30 05:36:39;;;;;;;7.63;4.40;;;14.50;99.90;;;;;;5071231;28;20431;-84
2022/08/30 05:39:06;;;;;;;6.38;4.60;;;14.60;99.90;;;;;;5071095;28;20040;-84
2022/08/30 05:41:32;;;;;;;6.07;4.50;;;14.70;99.90;;;;;;5070648;28;20055;-84
2022/08/30 05:43:59;;;;;;;6.55;4.47;;;14.80;99.90;;;;;;5054211;28;20041;-84
2022/08/30 05:46:28;;;;;;;7.45;5.00;;;14.90;99.90;;;;;;5070311;28;20036;-84
2022/08/30 05:48:55;;;;;;;6.95;4.80;;;15.00;99.90;;;;;;5070917;28;20048;-84
2022/08/30 05:51:24;;;;;;;8.02;4.43;;;15.00;99.90;;;;;;5070670;28;20071;-84
2022/08/30 05:53:52;;;;;;;7.75;4.32;;;15.10;99.90;;;;;;5070729;28;20060;-84
2022/08/30 05:56:24;;;;;;;6.43;4.03;;;15.30;99.90;;;;;;5070612;28;20051;-84
2022/08/30 05:58:50;;;;;;;6.88;4.97;;;15.30;99.90;;;;;;5070802;28;20044;-84
2022/08/30 06:01:19;;;;;;;8.50;5.35;;;15.50;99.90;;;;;;5053644;28;20041;-84
2022/08/30 06:03:48;;;;;;;6.82;4.38;;;15.60;99.90;;;;;;5041982;28;20424;-84
2022/08/30 06:06:13;;;;;;;;;;;15.70;99.90;;;;;;5051188;28;20048;-84
2022/08/30 06:08:39;;;;;;;10.30;3.88;;;15.80;99.90;;;;;;5050382;28;20376;-84
2022/08/30 06:11:05;;;;;;;6.07;3.80;;;15.90;99.90;;;;;;5050956;28;20040;-84
2022/08/30 06:13:31;;;;;;;5.20;3.70;;;16.00;99.90;;;;;;5033733;28;20041;-84
2022/08/30 06:15:57;;;;;;;;;;;16.20;99.90;;;;;;5050954;28;20049;-84
2022/08/30 06:18:22;;;;;;;5.53;3.10;;;16.30;99.90;;;;;;5034050;28;19917;-84
2022/08/30 06:20:50;;;;;;;5.63;2.85;;;16.40;99.90;;;;;;5050757;28;20041;-84
2022/08/30 06:23:16;;;;;;;5.45;2.55;;;16.50;99.90;;;;;;5050802;28;20443;-84
2022/08/30 06:25:43;;;;;;;6.45;2.90;;;16.70;99.90;;;;;;5033873;28;20045;-85
2022/08/30 06:28:10;;;;;;;7.35;2.90;;;16.80;99.90;;;;;;5050496;28;20519;-84
2022/08/30 06:30:38;;;;;;;4.80;2.75;;;16.90;99.90;;;;;;5050603;28;20485;-84
2022/08/30 06:33:03;;;;;;;5.88;2.50;;;17.10;99.90;;;;;;5050598;28;20496;-84
2022/08/30 06:35:30;;;;;;;4.75;2.20;;;17.30;99.90;;;;;;5050223;28;20079;-84
2022/08/30 06:37:56;;;;;;;;;;;17.40;99.90;;;;;;5034106;28;20076;-85
2022/08/30 06:40:21;;;;;;;6.93;2.38;;;17.60;99.90;;;;;;5050239;28;19971;-84
2022/08/30 06:42:47;;;;;;;5.43;1.80;;;17.80;99.90;;;;;;5034009;28;20041;-85
2022/08/30 06:45:15;;;;;;;6.18;1.90;;;17.90;99.90;;;;;;5034016;28;20048;-85
2022/08/30 06:47:40;;;;;;;4.00;1.92;;;18.00;99.90;;;;;;5050419;28;20400;-85
2022/08/30 06:50:07;;;;;;;4.15;1.90;;;18.20;99.90;;;;;;5033849;28;20049;-85
2022/08/30 06:52:33;;;;;;;4.57;1.60;;;18.60;99.90;;;;;;5050131;28;20037;-84
2022/08/30 06:54:58;;;;;;;3.40;1.73;;;19.10;99.90;;;;;;5049761;28;20050;-85
2022/08/30 06:57:25;;;;;;;1.95;1.15;;;19.60;99.90;;;;;;5049960;28;20041;-85
2022/08/30 06:59:55;;;;;;;3.55;1.35;;;20.00;99.90;;;;;;5050559;28;20056;-83
2022/08/30 07:02:21;;;;;;;3.60;1.23;;;20.30;99.90;;;;;;5050365;28;20481;-83
2022/08/30 07:04:47;;;;;;;;;;;20.70;99.90;;;;;;5050649;28;20072;-85
2022/08/30 07:07:13;;;;;;;3.30;1.58;;;21.00;99.90;;;;;;5017367;28;20399;-84
2022/08/30 07:09:42;;;;;;;4.00;1.20;;;21.00;99.90;;;;;;5049842;28;20128;-85
2022/08/30 07:12:09;;;;;;;2.78;1.20;;;21.20;99.90;;;;;;5050414;28;20812;-85
2022/08/30 07:14:35;;;;;;;5.20;1.20;;;21.50;99.90;;;;;;5053446;28;20123;-85
2022/08/30 07:17:01;;;;;;;5.22;1.33;;;21.70;99.90;;;;;;5037230;28;20053;-85
2022/08/30 07:19:26;;;;;;;5.28;1.08;;;22.00;99.90;;;;;;5053400;28;20154;-84
2022/08/30 07:21:52;;;;;;;3.10;1.05;;;22.10;99.90;;;;;;5053726;28;20033;-85
2022/08/30 07:24:22;;;;;;;2.65;1.00;;;22.30;99.90;;;;;;5053639;28;20055;-85
2022/08/30 07:26:50;;;;;;;2.90;0.90;;;22.10;99.90;;;;;;5063769;28;20040;-85
2022/08/30 07:29:17;;;;;;;2.75;0.90;;;22.40;99.90;;;;;;5090214;28;20119;-85
2022/08/30 07:31:43;;;;;;;2.90;0.63;;;22.60;99.90;;;;;;5073701;28;20476;-85
2022/08/30 07:34:09;;;;;;;2.40;0.88;;;22.80;99.90;;;;;;5073462;28;20146;-86
2022/08/30 07:36:36;;;;;;;;;;;22.80;99.90;;;;;;5073469;28;20112;-86
2022/08/30 07:39:05;;;;;;;3.53;0.80;;;22.90;99.90;;;;;;5056683;28;19923;-85
2022/08/30 07:41:35;;;;;;;2.35;0.80;;;23.20;99.90;;;;;;5051805;28;20044;-85
2022/08/30 07:44:01;;;;;;;1.75;0.75;;;23.30;99.90;;;;;;5036521;28;20040;-85
2022/08/30 07:46:27;;;;;;;;;;;23.50;99.50;;;;;;5053460;28;20041;-86
2022/08/30 07:48:54;;;;;;;3.05;0.90;;;23.10;99.40;;;;;;5053371;28;19952;-86
2022/08/30 07:51:23;;;;;;;3.58;0.80;;;23.40;99.90;;;;;;5053024;28;20493;-86
2022/08/30 07:53:48;;;;;;;1.75;0.60;;;23.50;99.90;;;;;;5052923;28;20496;-86
2022/08/30 07:56:14;;;;;;;;;;;23.70;99.90;;;;;;5036768;28;20036;-86
2022/08/30 07:58:40;;;;;;;2.53;0.60;;;23.60;99.10;;;;;;5036162;28;19923;-86
2022/08/30 08:01:07;;;;;;;;;;;23.70;99.60;;;;;;5036647;28;20037;-86
2022/08/30 08:03:34;;;;;;;2.22;0.75;;;23.80;99.30;;;;;;5052641;28;19916;-84
2022/08/30 08:06:03;;;;;;;1.98;0.60;;;24.30;99.20;;;;;;5052904;28;20049;-84
2022/08/30 08:08:30;;;;;;;1.65;0.43;;;24.00;97.60;;;;;;5036226;28;20048;-84
2022/08/30 08:10:56;;;;;;;3.00;0.70;;;23.90;98.20;;;;;;5053034;28;20170;-84
2022/08/30 08:13:22;;;;;;;;;;;24.10;97.30;;;;;;5036577;28;20481;-84
2022/08/30 08:15:48;;;;;;;3.03;0.77;;;24.00;97.30;;;;;;5052748;28;20292;-84
2022/08/30 08:18:14;;;;;;;;;;;23.90;97.30;;;;;;5052774;28;20497;-84
2022/08/30 08:20:39;;;;;;;1.20;0.50;;;23.90;97.60;;;;;;5052234;28;19917;-84
2022/08/30 08:23:05;;;;;;;;;;;23.90;97.70;;;;;;5036024;28;20504;-84
2022/08/30 08:25:31;;;;;;;3.63;0.70;;;24.00;97.50;;;;;;5052027;28;19927;-84
2022/08/30 08:27:57;;;;;;;2.33;0.50;;;23.60;97.10;;;;;;5068645;28;20051;-84
2022/08/30 08:30:23;;;;;;;;;;;23.90;97.80;;;;;;5052330;28;20040;-84
2022/08/30 08:32:50;;;;;;;2.70;0.60;;;23.30;96.80;;;;;;5052233;28;19920;-84
2022/08/30 08:35:17;;;;;;;1.35;0.70;;;23.50;97.30;;;;;;5051590;28;20049;-86
2022/08/30 08:37:43;;;;;;;2.67;0.60;;;23.20;97.10;;;;;;5051679;28;20041;-85
2022/08/30 08:40:15;;;;;;;1.08;0.50;;;23.50;97.00;;;;;;5051742;28;20052;-85
2022/08/30 08:43:11;;;;;;;2.50;0.68;;;23.70;96.70;;;;;;5051589;28;20343;-84
2022/08/30 08:45:59;;;;;;;1.67;0.45;;;24.30;97.10;;;;;;5043412;28;20182;-85
2022/08/30 08:48:31;;;;;;;1.20;0.50;;;24.40;96.60;;;;;;5051906;28;20048;-85
2022/08/30 08:53:46;;;;;;;2.00;0.55;;;24.40;96.90;;;;;;5051475;28;20057;-84
2022/08/30 08:56:15;;;;;;;1.90;0.75;;;24.90;96.80;;;;;;5051777;28;20045;-85
2022/08/30 08:58:43;;;;;;;2.08;0.50;;;25.10;95.70;;;;;;5051560;28;20098;-85
2022/08/30 09:01:14;;;;;;;1.60;0.60;;;25.10;95.20;;;;;;5051899;28;20562;-85
2022/08/30 09:03:40;;;;;;;2.85;0.68;;;24.50;95.60;;;;;;5034837;28;20037;-84
2022/08/30 09:06:33;;;;;;;2.10;0.70;;;24.50;96.20;;;;;;5051637;28;20118;-85
2022/08/30 09:08:59;;;;;;;1.83;0.63;;;24.00;96.30;;;;;;5051700;28;20481;-85
2022/08/30 09:11:26;;;;;;;;;;;24.10;96.20;;;;;;5067849;28;20052;-84
2022/08/30 09:13:53;;;;;;;2.47;0.47;;;24.10;96.00;;;;;;5051083;28;19924;-85
2022/08/30 09:16:50;;;;;;;2.10;0.50;;;24.70;95.80;;;;;;5067959;28;20484;-84
2022/08/30 09:20:03;;;;;;;2.92;0.55;;;25.00;95.90;;;;;;5051731;28;20388;-85
2022/08/30 09:22:41;;;;;;;2.47;0.57;;;25.10;95.50;;;;;;5014194;28;20128;-85
2022/08/30 09:25:09;;;;;;;1.10;0.40;;;25.90;94.70;;;;;;5032527;28;20056;-85
2022/08/30 09:27:39;;;;;;;1.50;0.40;;;25.70;94.90;;;;;;5034296;28;20051;-85
2022/08/30 09:30:09;;;;;;;1.90;0.75;;;26.10;94.80;;;;;;5050830;28;20045;-85
2022/08/30 09:32:39;;;;;;;3.70;0.88;;;26.50;94.70;;;;;;5034561;28;20056;-85
2022/08/30 09:35:12;;;;;;;1.73;0.50;;;26.40;94.00;;;;;;5050517;28;20045;-85
2022/08/30 09:38:03;;;;;;;5.25;0.98;;;26.40;93.80;;;;;;5067970;28;20045;-85
2022/08/30 09:40:52;;;;;;;1.60;0.60;;;26.10;94.20;;;;;;5034228;28;20047;-85
2022/08/30 09:43:20;;;;;;;2.28;0.90;;;25.90;94.50;;;;;;5050933;28;20579;-84
2022/08/30 09:46:00;;;;;;;2.03;0.50;;;25.00;94.10;;;;;;5050880;28;20033;-85
2022/08/30 09:48:26;;;;;;;2.38;0.60;;;24.70;94.70;;;;;;5050690;28;20040;-84
2022/08/30 09:51:07;;;;;;;1.83;0.57;;;25.50;95.10;;;;;;5050897;28;20112;-86
2022/08/30 09:53:53;;;;;;;2.05;0.60;;;25.50;94.10;;;;;;5050613;28;20049;-84
2022/08/30 09:56:24;;;;;;;2.67;0.60;;;25.00;94.50;;;;;;5050890;28;20059;-84
2022/08/30 09:59:00;;;;;;;2.55;0.63;;;24.20;94.70;;;;;;5050972;28;20555;-85
2022/08/30 10:01:35;;;;;;;1.90;0.50;;;24.60;95.30;;;;;;5033791;28;20048;-85
2022/08/30 10:04:16;;;;;;;1.05;0.50;;;24.80;95.20;;;;;;5050683;28;20123;-86
2022/08/30 10:06:48;;;;;;;1.65;0.70;;;24.70;94.40;;;;;;5042470;28;20105;-85
2022/08/30 10:09:19;;;;;;;3.40;0.60;;;24.60;95.00;;;;;;5070412;28;20044;-85
2022/08/30 10:11:48;;;;;;;2.30;0.50;;;24.50;95.00;;;;;;5053787;28;20148;-85
2022/08/30 10:14:33;;;;;;;2.78;0.50;;;25.00;94.50;;;;;;5070222;28;20040;-85
2022/08/30 10:17:04;;;;;;;1.27;0.60;;;25.20;94.50;;;;;;5053714;28;20040;-86
2022/08/30 10:19:48;;;;;;;2.10;0.60;;;24.70;94.70;;;;;;5070139;28;20076;-85
2022/08/30 10:22:23;;;;;;;1.13;0.50;;;24.70;95.20;;;;;;5070041;28;20049;-85
2022/08/30 10:24:54;;;;;;;1.50;0.55;;;24.90;94.60;;;;;;5070562;28;20048;-85
2022/08/30 10:27:27;;;;;;;2.35;0.45;;;25.40;94.70;;;;;;5070373;28;20040;-85
2022/08/30 10:30:04;;;;;;;1.25;0.40;;;25.90;93.80;;;;;;5070215;28;20041;-85
2022/08/30 10:32:47;;;;;;;4.90;0.30;;;25.80;93.70;;;;;;5070113;28;20040;-85
2022/08/30 10:35:22;;;;;;;2.53;0.60;;;26.00;94.30;;;;;;5070291;28;20048;-85
2022/08/30 10:38:01;;;;;;;2.80;0.63;;;26.60;93.60;;;;;;5070565;28;20051;-85
2022/08/30 10:43:25;;;;;;;2.53;0.50;;;25.90;93.60;;;;;;5050362;28;20179;-84
2022/08/30 10:45:55;;;;;;;1.88;0.60;;;25.30;94.20;;;;;;5050309;28;20044;-84
2022/08/30 10:48:31;;;;;;;2.60;0.60;;;24.90;93.90;;;;;;5053972;28;20037;-84
2022/08/30 10:51:03;;;;;;;2.10;0.65;;;25.20;94.10;;;;;;5054209;28;20449;-84
2022/08/30 10:53:53;;;;;;;1.48;0.40;;;25.70;93.20;;;;;;5053798;28;20048;-85
2022/08/30 10:56:23;;;;;;;4.10;0.57;;;26.70;93.30;;;;;;5070464;28;20036;-85
2022/08/30 10:58:51;;;;;;;1.10;0.30;;;27.10;92.40;;;;;;5054002;28;20037;-85
2022/08/30 11:01:28;;;;;;;2.58;0.50;;;27.10;90.60;;;;;;5054100;28;20523;-85
2022/08/30 11:03:56;;;;;;;1.80;0.40;;;27.30;91.60;;;;;;5053911;28;20488;-85
2022/08/30 11:06:53;;;;;;;2.15;0.47;;;27.70;91.70;;;;;;5053008;28;20055;-84
2022/08/30 11:09:55;;;;;;;1.48;0.55;;;27.90;91.70;;;;;;5036635;28;20045;-84
2022/08/30 11:12:21;;;;;;;2.35;0.60;;;28.30;91.40;;;;;;5036126;28;20051;-85
2022/08/30 11:14:47;;;;;;;1.42;0.40;;;28.50;91.70;;;;;;5052879;28;20048;-85
2022/08/30 11:17:54;;;;;;;1.40;0.50;;;29.00;91.70;;;;;;5036248;28;20045;-85
2022/08/30 11:20:29;;;;;;;12.50;0.73;;;29.10;90.70;;;;;;5036543;28;20047;-86
2022/08/30 11:23:12;;;;;;;2.65;0.40;;;29.40;90.60;;;;;;5053012;28;20045;-86
2022/08/30 11:25:54;;;;;;;2.45;0.60;;;29.40;90.70;;;;;;5036993;28;20079;-86
2022/08/30 11:28:35;;;;;;;1.70;0.40;;;29.00;88.10;;;;;;5036454;28;20032;-86
2022/08/30 11:31:22;;;;;;;2.38;0.40;;;29.10;88.60;;;;;;5053297;28;20041;-86
2022/08/30 11:33:58;;;;;;;2.53;0.65;;;28.70;89.50;;;;;;5052972;28;20041;-86
2022/08/30 11:36:27;;;;;;;1.17;0.40;;;29.20;89.00;;;;;;5052985;28;20041;-86
2022/08/30 11:38:53;;;;;;;1.67;0.40;;;29.70;90.20;;;;;;5053056;28;20071;-87
2022/08/30 11:41:32;;;;;;;1.90;0.30;;;29.90;90.10;;;;;;5052843;28;20059;-86
2022/08/30 11:44:21;;;;;;;1.30;0.50;;;29.60;88.80;;;;;;5036334;28;20052;-86
2022/08/30 11:46:53;;;;;;;1.70;0.40;;;29.60;90.00;;;;;;5047580;28;20056;-87
2022/08/30 11:49:19;;;;;;;1.33;0.50;;;29.70;88.30;;;;;;5047457;28;20048;-87
2022/08/30 11:52:03;;;;;;;1.40;0.50;;;29.90;88.10;;;;;;5089890;28;20033;-87
2022/08/30 11:54:58;;;;;;;1.95;0.55;;;29.60;89.30;;;;;;5072388;28;20095;-87
2022/08/30 11:57:57;;;;;;;2.00;0.70;;;29.60;89.10;;;;;;5072669;28;20102;-86
2022/08/30 12:01:09;;;;;;;1.95;0.50;;;29.90;88.00;;;;;;5089061;28;20040;-87
2022/08/30 12:03:35;;;;;;;1.17;0.32;;;29.60;88.50;;;;;;5072517;28;20445;-87
2022/08/30 12:06:04;;;;;;;1.75;0.50;;;29.00;89.00;;;;;;5063431;28;20040;-87
2022/08/30 12:08:35;;;;;;;2.60;0.60;;;29.30;89.30;;;;;;5052347;28;20041;-87
2022/08/30 12:11:03;;;;;;;3.42;0.70;;;29.60;87.90;;;;;;5052423;28;20049;-87
2022/08/30 12:13:37;;;;;;;1.67;0.50;;;29.50;88.00;;;;;;5068938;28;20539;-87
2022/08/30 12:16:06;;;;;;;1.48;0.50;;;29.80;88.50;;;;;;5052251;28;20072;-87
2022/08/30 12:18:44;;;;;;;2.63;0.35;;;29.90;89.50;;;;;;5051923;28;20045;-87
2022/08/30 12:21:18;;;;;;;0.88;0.40;;;29.60;89.40;;;;;;5052800;28;20497;-87
2022/08/30 12:23:55;;;;;;;1.48;0.55;;;30.00;88.90;;;;;;5047437;28;20085;-87
2022/08/30 12:26:24;;;;;;;1.23;0.43;;;29.90;88.80;;;;;;5071843;28;20040;-87
2022/08/30 12:29:09;;;;;;;2.53;0.40;;;30.00;89.00;;;;;;5072264;28;20188;-87
2022/08/30 12:31:45;;;;;;;2.67;0.50;;;30.10;87.10;;;;;;5057746;28;20207;-87
2022/08/30 12:34:31;;;;;;;2.35;0.40;;;30.20;87.10;;;;;;5072145;28;20531;-87
2022/08/30 12:37:10;;;;;;;1.40;0.43;;;29.90;87.70;;;;;;5071373;28;20045;-87
2022/08/30 12:39:38;;;;;;;1.92;0.50;;;29.50;87.20;;;;;;5071509;28;20037;-87
2022/08/30 12:42:23;;;;;;;1.30;0.57;;;29.50;88.00;;;;;;5071684;28;20512;-87
2022/08/30 12:44:52;;;;;;;2.10;0.45;;;29.60;88.80;;;;;;5071772;28;20079;-87
2022/08/30 12:47:30;;;;;;;1.30;0.50;;;29.50;88.40;;;;;;5071777;28;20093;-87
2022/08/30 12:49:57;;;;;;;3.10;0.60;;;29.90;88.20;;;;;;5071646;28;20044;-87
2022/08/30 12:52:27;;;;;;;3.30;0.52;;;29.60;87.10;;;;;;5071807;28;20048;-87
2022/08/30 12:54:55;;;;;;;1.33;0.63;;;29.30;87.00;;;;;;5071416;28;20059;-87
2022/08/30 12:57:52;;;;;;;1.38;0.50;;;28.90;87.50;;;;;;5055127;28;20044;-87
2022/08/30 13:00:48;;;;;;;1.77;0.60;;;28.80;87.80;;;;;;5068385;28;20071;-87
2022/08/30 13:03:35;;;;;;;4.75;0.50;;;28.90;88.20;;;;;;5043213;28;20076;-87
2022/08/30 13:06:08;;;;;;;1.83;0.57;;;28.70;88.60;;;;;;5034889;28;20120;-87
2022/08/30 13:08:50;;;;;;;2.08;0.43;;;29.00;89.00;;;;;;5051049;28;20072;-87
2022/08/30 13:11:25;;;;;;;1.70;0.40;;;29.20;88.90;;;;;;5034290;28;20696;-87
2022/08/30 13:14:12;;;;;;;1.98;0.40;;;29.50;89.30;;;;;;5034418;28;20186;-87
2022/08/30 13:16:37;;;;;;;2.20;0.57;;;29.50;89.80;;;;;;5075268;28;20123;-87